createdAt,value
2019-02-20T00:30:48.952Z,20.00
2019-02-20T00:44:11.842Z,20.00
2019-02-20T00:57:34.565Z,20.00
2019-02-20T01:10:57.418Z,20.00
2019-02-20T01:24:20.216Z,20.00
2019-02-20T01:37:43.021Z,20.00
2019-02-20T01:51:05.877Z,20.00
2019-02-20T02:04:28.710Z,20.00
2019-02-20T02:17:51.497Z,20.00
2019-02-20T02:31:14.303Z,20.00
2019-02-20T02:44:37.149Z,20.00
2019-02-20T02:57:59.917Z,20.00
2019-02-20T03:11:22.834Z,20.00
2019-02-20T03:24:45.527Z,20.10
2019-02-20T03:38:08.366Z,20.10
2019-02-20T03:51:31.219Z,20.10
2019-02-20T04:04:54.051Z,20.10
2019-02-20T04:18:16.834Z,20.10
2019-02-20T04:44:41.319Z,20.20
2019-02-20T04:57:48.435Z,20.20
2019-02-20T05:10:55.558Z,20.20
2019-02-20T05:24:02.760Z,20.10
2019-02-20T05:37:09.955Z,20.10
2019-02-20T05:50:17.144Z,20.10
2019-02-20T06:03:41.021Z,20.10
2019-02-20T06:17:03.889Z,20.10
2019-02-20T06:30:26.733Z,20.00
2019-02-20T06:43:49.497Z,20.00
2019-02-20T06:57:12.332Z,20.10
2019-02-20T07:10:35.181Z,20.30
2019-02-20T07:23:57.944Z,20.50
2019-02-20T07:50:22.426Z,20.60
2019-02-20T08:03:29.856Z,20.50
2019-02-20T08:16:36.923Z,20.50
2019-02-20T08:29:44.113Z,20.50
2019-02-20T08:42:51.319Z,20.40
2019-02-20T08:55:58.480Z,20.30
2019-02-20T09:09:22.183Z,20.30
2019-02-20T09:22:44.982Z,20.40
2019-02-20T09:36:07.798Z,20.30
2019-02-20T09:49:30.605Z,20.30
2019-02-20T10:02:53.408Z,20.30
2019-02-20T10:16:16.275Z,20.40
2019-02-20T10:29:39.077Z,20.40
2019-02-20T10:43:03.506Z,20.40
2019-02-20T10:56:24.714Z,20.40
2019-02-20T11:09:47.516Z,20.30
2019-02-20T11:23:10.338Z,20.30
2019-02-20T11:36:33.127Z,20.40
2019-02-20T11:49:55.967Z,20.40
2019-02-20T12:03:18.847Z,20.40
2019-02-20T12:16:41.621Z,20.40
2019-02-20T12:30:04.410Z,20.40
2019-02-20T12:43:27.211Z,20.40
2019-02-20T12:56:50.097Z,20.40
2019-02-20T13:10:12.861Z,20.30
2019-02-20T13:23:35.709Z,20.30
2019-02-20T13:36:58.479Z,20.30
2019-02-20T13:50:21.302Z,20.30
2019-02-20T14:03:44.144Z,20.30
2019-02-20T14:17:06.911Z,20.30
2019-02-20T14:30:29.728Z,20.30
2019-02-20T14:43:52.576Z,20.40
2019-02-20T15:10:17.005Z,20.40
2019-02-20T15:23:24.192Z,20.40
2019-02-20T15:49:36.444Z,20.40
2019-02-20T16:02:43.637Z,20.40
2019-02-20T16:15:50.841Z,20.40
2019-02-20T16:28:58.316Z,20.40
2019-02-20T16:42:05.556Z,20.40
2019-02-20T17:08:31.316Z,20.40
2019-02-20T17:21:38.584Z,20.50
2019-02-20T17:34:45.722Z,18.70
2019-02-20T17:47:52.869Z,18.50
2019-02-20T18:01:00.071Z,18.60
2019-02-20T18:14:07.199Z,18.90
2019-02-20T18:27:31.052Z,18.70
2019-02-20T18:40:55.713Z,18.00
2019-02-20T18:54:16.735Z,18.50
2019-02-20T19:07:39.623Z,19.50
2019-02-20T19:21:02.325Z,19.90
2019-02-20T19:34:25.162Z,20.10
2019-02-20T19:47:50.332Z,20.20
2019-02-20T20:01:10.816Z,20.30
2019-02-20T20:14:33.576Z,20.30
2019-02-20T20:27:56.485Z,20.40
2019-02-20T20:41:19.222Z,20.30
2019-02-20T20:54:42.073Z,20.40
2019-02-20T21:08:04.824Z,20.40
2019-02-20T21:21:27.678Z,20.40
2019-02-20T21:47:52.501Z,20.30
2019-02-20T22:00:59.707Z,18.90
2019-02-20T22:14:06.861Z,20.00
2019-02-20T22:27:13.990Z,20.00
2019-02-20T22:40:21.223Z,20.20
2019-02-20T22:53:28.335Z,20.20
2019-02-20T23:06:51.891Z,20.20
2019-02-20T23:20:14.694Z,20.20
2019-02-20T23:33:37.494Z,20.20
2019-02-20T23:47:00.322Z,20.20
